Time;durP1;ratioP1;P1;durP2;ratioP2;P2;SDS_P1;SDS_P2;PMS_P1;PMS_P2;Temp;Humidity;BMP_temperature;BMP_pressure;BME280_temperature;BME280_humidity;BME280_pressure;Samples;Min_cycle;Max_cycle;Signal;HPM_P1;HPM_P2
2022/01/26 00:48:18;;;;;;;;;;;;;;;;;;;;;
2022/01/26 00:51:54;;;;;;;127.20;39.00;;;2.50;99.90;;;;;;5709493;25;20395;-81
2022/01/26 00:59:39;;;;;;;;;;;;;;;;;;;;;
2022/01/26 01:35:33;;;;;;;128.10;38.40;;;3.30;99.90;;;;;;5929213;24;20235;-81
2022/01/26 01:39:00;;;;;;;125.68;39.10;;;2.10;99.90;;;;;;5848049;24;20085;-81
2022/01/26 01:41:26;;;;;;;129.23;39.45;;;2.90;99.90;;;;;;5826497;24;20025;-82
2022/01/26 01:43:51;;;;;;;122.50;38.80;;;2.80;99.90;;;;;;5826688;24;20087;-81
2022/01/26 01:46:17;;;;;;;130.43;40.50;;;2.90;99.90;;;;;;5826581;24;20367;-82
2022/01/26 01:48:43;;;;;;;131.55;38.63;;;2.90;99.90;;;;;;5848175;24;20042;-80
2022/01/26 01:51:11;;;;;;;122.63;38.28;;;2.90;99.90;;;;;;5848477;24;20015;-80
2022/01/26 01:53:43;;;;;;;117.97;38.78;;;2.80;99.90;;;;;;5825788;24;20044;-80
2022/01/26 01:56:14;;;;;;;118.38;37.22;;;3.30;99.90;;;;;;5871535;24;20014;-81
2022/01/26 01:58:40;;;;;;;132.90;40.92;;;2.90;99.90;;;;;;5852925;24;20025;-81
2022/01/26 02:01:17;;;;;;;122.97;38.08;;;2.90;99.90;;;;;;5875472;24;20021;-82
2022/01/26 02:03:53;;;;;;;116.95;35.53;;;2.80;99.90;;;;;;5874899;24;20033;-80
2022/01/26 02:06:29;;;;;;;119.95;38.70;;;2.80;99.90;;;;;;5885959;24;20024;-80
2022/01/26 02:08:55;;;;;;;125.93;37.15;;;2.90;99.90;;;;;;5906094;24;20012;-81
2022/01/26 02:11:20;;;;;;;117.05;37.90;;;2.90;99.90;;;;;;6091546;23;20013;-81
2022/01/26 02:14:02;;;;;;;115.05;36.20;;;2.90;99.90;;;;;;6126685;23;20021;-81
2022/01/26 02:16:49;;;;;;;124.50;38.08;;;2.90;99.90;;;;;;6187920;23;20044;-81
2022/01/26 03:05:10;;;;;;;128.63;38.97;;;2.80;99.90;;;;;;6126897;23;20060;-81
2022/01/26 03:10:17;;;;;;;145.60;43.83;;;2.90;99.90;;;;;;6126451;23;20049;-81
2022/01/26 03:15:15;;;;;;;134.32;41.80;;;2.80;99.90;;;;;;6126642;23;20533;-81
2022/01/26 03:20:27;;;;;;;120.70;37.88;;;2.80;99.90;;;;;;6126285;23;20013;-81
2022/01/26 03:28:27;;;;;;;128.25;40.33;;;2.80;99.90;;;;;;6126732;23;20481;-81
2022/01/26 03:33:52;;;;;;;124.65;41.03;;;2.80;99.90;;;;;;6174038;23;20016;-81
2022/01/26 03:36:18;;;;;;;129.68;39.08;;;2.80;99.90;;;;;;6217196;23;20012;-81
2022/01/26 03:38:47;;;;;;;136.35;41.95;;;2.80;99.90;;;;;;6192104;23;20112;-81
2022/01/26 03:43:42;;;;;;;121.90;40.72;;;2.80;99.90;;;;;;6217197;23;20119;-81
2022/01/26 03:46:08;;;;;;;127.85;41.67;;;2.80;99.90;;;;;;6216795;23;20016;-81
2022/01/26 03:48:34;;;;;;;127.82;41.10;;;2.80;99.90;;;;;;6216478;23;20018;-81
2022/01/26 03:51:00;;;;;;;119.18;39.20;;;2.80;99.90;;;;;;6191772;23;20008;-81
2022/01/26 03:53:26;;;;;;;123.38;39.53;;;2.80;99.90;;;;;;6216531;23;20016;-82
2022/01/26 03:55:52;;;;;;;110.47;36.92;;;2.80;99.90;;;;;;6216554;23;20012;-82
2022/01/26 03:58:17;;;;;;;118.80;39.20;;;2.80;99.90;;;;;;6216997;23;20096;-82
2022/01/26 04:00:43;;;;;;;114.95;38.03;;;2.80;99.90;;;;;;6216912;23;20050;-82
2022/01/26 04:03:09;;;;;;;116.38;37.53;;;2.80;99.90;;;;;;6216575;23;20149;-82
2022/01/26 04:05:35;;;;;;;107.65;37.08;;;2.80;99.90;;;;;;6216560;22;20190;-82
2022/01/26 04:08:07;;;;;;;102.75;36.78;;;2.80;99.90;;;;;;6191635;23;20012;-81
2022/01/26 04:13:17;;;;;;;110.45;37.60;;;2.80;99.90;;;;;;6216639;23;20016;-82
2022/01/26 04:15:43;;;;;;;101.40;36.25;;;3.10;99.90;;;;;;6191834;23;20412;-82
2022/01/26 04:18:13;;;;;;;93.50;35.55;;;2.80;99.90;;;;;;6191083;23;20020;-82
2022/01/26 04:20:43;;;;;;;100.45;34.67;;;2.80;99.90;;;;;;6216555;23;20087;-82
2022/01/26 04:23:15;;;;;;;116.78;38.13;;;2.80;99.90;;;;;;6216288;23;20289;-81
2022/01/26 04:25:43;;;;;;;105.95;36.85;;;2.80;99.90;;;;;;6191021;23;20483;-81
2022/01/26 04:28:14;;;;;;;101.88;36.22;;;2.80;99.90;;;;;;6217111;23;20016;-82
2022/01/26 04:30:40;;;;;;;93.53;32.78;;;2.80;99.90;;;;;;6216532;23;20066;-82
2022/01/26 04:33:06;;;;;;;94.10;34.63;;;2.80;99.90;;;;;;6190890;23;20016;-82
2022/01/26 04:35:33;;;;;;;102.50;35.15;;;2.80;99.90;;;;;;6191793;23;20012;-82
2022/01/26 04:40:37;;;;;;;99.22;34.22;;;2.80;99.90;;;;;;6216309;23;20016;-81
2022/01/26 04:43:09;;;;;;;95.75;35.92;;;2.80;99.90;;;;;;6216864;23;20009;-81
2022/01/26 04:45:34;;;;;;;99.80;34.83;;;2.80;99.90;;;;;;6192634;23;20031;-82
2022/01/26 04:48:00;;;;;;;96.47;34.40;;;2.80;99.90;;;;;;6216246;23;20286;-81
2022/01/26 04:50:26;;;;;;;92.80;32.92;;;2.80;99.90;;;;;;6216525;23;20016;-81
2022/01/26 04:52:51;;;;;;;97.60;33.63;;;2.80;99.90;;;;;;6216488;23;20016;-81
2022/01/26 04:55:17;;;;;;;107.32;33.28;;;2.70;99.90;;;;;;6216190;23;20387;-81
2022/01/26 04:57:42;;;;;;;96.10;33.53;;;2.80;99.90;;;;;;6191361;23;20027;-81
2022/01/26 05:00:09;;;;;;;94.00;32.08;;;2.80;99.90;;;;;;6191564;23;20028;-81
2022/01/26 05:02:34;;;;;;;86.72;31.98;;;2.80;99.90;;;;;;6215666;23;20127;-81
2022/01/26 05:05:01;;;;;;;97.80;33.28;;;2.80;99.90;;;;;;6191429;23;20052;-82
2022/01/26 05:14:50;;;;;;;;;;;;;;;;;;;;;
2022/01/26 05:59:21;;;;;;;81.47;28.80;;;2.50;99.90;;;;;;5958329;24;20505;-81
2022/01/26 06:19:31;;;;;;;83.80;29.65;;;2.60;99.90;;;;;;5498047;22;17909595;-81
2022/01/26 06:34:01;;;;;;;83.13;30.95;;;1.70;99.90;;;;;;6100207;23;20030;-81
2022/01/26 06:37:37;;;;;;;89.50;31.60;;;2.50;99.90;;;;;;5957724;24;20216;-81
2022/01/26 07:37:05;;;;;;;105.45;36.47;;;2.60;99.90;;;;;;5788604;24;20085;-82
2022/01/26 07:51:24;;;;;;;;;;;2.00;99.90;;;;;;5737364;24;20102;-81
2022/01/26 08:20:39;;;;;;;122.65;43.15;;;2.90;99.90;;;;;;5891218;24;20097;-82
2022/01/26 08:31:16;;;;;;;;;;;;;;;;;;;;;
2022/01/26 08:34:56;;;;;;;120.00;43.25;;;3.10;99.90;;;;;;5922832;24;20031;-82
2022/01/26 08:37:55;;;;;;;;;;;;;;;;;;;;;
2022/01/26 08:41:25;;;;;;;120.40;44.22;;;4.00;99.90;;;;;;5936484;23;20027;-82
2022/01/26 08:45:16;;;;;;;;;;;;;;;;;;;;;
2022/01/26 08:52:07;;;;;;;;;;;;;;;;;;;;;
2022/01/26 08:55:58;;;;;;;;;;;;;;;;;;;;;
2022/01/26 08:59:15;;;;;;;128.05;46.35;;;3.20;99.90;;;;;;5841431;24;20022;-83
2022/01/26 09:06:54;;;;;;;120.68;45.08;;;3.10;99.90;;;;;;5814372;24;20241;-82
2022/01/26 09:20:42;;;;;;;121.22;44.10;;;3.20;99.90;;;;;;6329361;22;20119;-81
2022/01/26 09:24:02;;;;;;;129.87;45.30;;;2.70;99.90;;;;;;5558194;23;15101055;-81
2022/01/26 09:30:57;;;;;;;116.18;44.20;;;4.40;99.90;;;;;;6096468;23;20018;-82
2022/01/26 09:37:59;;;;;;;111.97;45.08;;;2.90;99.90;;;;;;5986047;23;20019;-82
2022/01/26 09:45:28;;;;;;;91.45;39.03;;;4.40;99.90;;;;;;5848067;24;20070;-82
2022/01/26 10:01:57;;;;;;;95.00;39.88;;;3.90;99.90;;;;;;5958513;22;7569160;-82
2022/01/26 10:18:17;;;;;;;88.68;38.65;;;3.90;99.90;;;;;;6104545;23;20032;-81
2022/01/26 10:21:17;;;;;;;90.60;39.33;;;4.00;99.90;;;;;;6042342;23;20080;-81
2022/01/26 11:57:34;;;;;;;89.07;33.67;;;3.60;99.90;;;;;;5848918;24;20029;-83
2022/01/26 12:04:47;;;;;;;86.20;34.60;;;4.30;99.90;;;;;;5898644;24;20014;-82
2022/01/26 12:07:44;;;;;;;87.78;35.33;;;3.60;99.90;;;;;;5851352;24;20016;-82
2022/01/26 12:14:34;;;;;;;96.53;34.67;;;3.50;99.90;;;;;;5877310;24;20021;-83
2022/01/26 12:33:55;;;;;;;90.87;33.80;;;4.50;99.90;;;;;;5762826;24;20016;-81
2022/01/26 12:36:35;;;;;;;94.40;35.67;;;4.90;99.90;;;;;;5741707;24;20148;-81
2022/01/26 12:39:04;;;;;;;94.13;35.70;;;4.50;99.90;;;;;;5792909;24;20061;-81
2022/01/26 12:41:54;;;;;;;91.30;35.17;;;4.40;99.90;;;;;;5782055;24;20018;-81
2022/01/26 12:44:23;;;;;;;98.55;40.92;;;4.50;99.90;;;;;;5825125;24;20092;-81
2022/01/26 12:55:27;;;;;;;85.05;35.03;;;5.10;99.90;;;;;;5862833;24;20117;-82
2022/01/26 13:02:05;;;;;;;88.70;33.70;;;5.00;99.90;;;;;;5739461;24;20024;-81
2022/01/26 14:01:35;;;;;;;;;;;;;;;;;;;;;
2022/01/26 14:04:46;;;;;;;70.13;28.73;;;5.20;99.90;;;;;;6041002;23;20078;-81
2022/01/26 14:08:01;;;;;;;67.55;29.58;;;5.20;99.90;;;;;;5975936;23;20022;-81
2022/01/26 14:14:52;;;;;;;66.43;28.02;;;5.00;99.90;;;;;;5985353;24;20550;-82
2022/01/26 16:19:04;;;;;;;79.60;28.40;;;5.20;99.90;;;;;;5900933;24;20021;-82
2022/01/26 16:26:24;;;;;;;83.22;29.33;;;5.20;99.90;;;;;;5922349;24;20026;-82
2022/01/26 18:38:44;;;;;;;54.13;22.60;;;5.70;99.90;;;;;;6046725;23;20078;-82
2022/01/26 18:49:31;;;;;;;50.70;21.05;;;5.80;99.90;;;;;;6176932;23;20084;-78
2022/01/26 18:51:58;;;;;;;44.63;20.38;;;5.90;99.90;;;;;;6155216;23;20151;-77
2022/01/26 18:54:33;;;;;;;46.13;21.17;;;5.80;99.90;;;;;;6179510;23;20287;-78
2022/01/26 18:57:00;;;;;;;47.65;20.48;;;5.80;99.90;;;;;;6155700;23;20013;-78
2022/01/26 18:59:27;;;;;;;46.08;20.95;;;5.80;99.90;;;;;;6155553;23;20095;-75
2022/01/26 19:01:55;;;;;;;52.75;22.42;;;5.80;99.90;;;;;;6155668;23;20071;-76
2022/01/26 19:04:27;;;;;;;48.95;22.83;;;5.80;99.90;;;;;;6155048;23;20046;-76
2022/01/26 19:06:54;;;;;;;50.17;21.95;;;5.90;99.90;;;;;;6180422;23;20017;-79
2022/01/26 19:09:24;;;;;;;43.70;18.92;;;5.80;99.90;;;;;;6180537;23;20048;-79
2022/01/26 19:11:50;;;;;;;39.75;16.38;;;5.90;99.90;;;;;;6156010;23;20060;-80
2022/01/26 19:14:16;;;;;;;44.80;21.42;;;6.00;99.90;;;;;;6180690;23;20091;-83
2022/01/26 19:16:47;;;;;;;43.63;21.08;;;6.00;99.90;;;;;;6180850;23;20017;-79
2022/01/26 19:21:56;;;;;;;39.05;19.63;;;6.00;99.90;;;;;;6182758;23;20103;-79
2022/01/26 19:27:34;;;;;;;42.30;20.67;;;6.00;99.90;;;;;;6068692;23;20355;-79
2022/01/26 19:43:35;;;;;;;46.20;20.45;;;6.00;99.90;;;;;;6092853;23;20027;-79
2022/01/26 19:51:13;;;;;;;46.55;20.33;;;6.00;99.90;;;;;;6092632;23;20022;-79
2022/01/26 19:53:40;;;;;;;40.25;19.05;;;6.00;99.90;;;;;;6069083;23;20046;-80
2022/01/26 19:56:06;;;;;;;42.08;19.15;;;6.00;99.90;;;;;;6068183;23;20011;-78
2022/01/26 19:58:32;;;;;;;45.53;20.60;;;6.00;99.90;;;;;;6068864;23;20021;-79
2022/01/26 20:00:58;;;;;;;44.67;19.77;;;6.00;99.90;;;;;;6068992;23;20014;-79
2022/01/26 20:03:24;;;;;;;46.33;20.92;;;6.00;99.90;;;;;;6082932;23;20468;-79
2022/01/26 20:05:52;;;;;;;42.33;19.63;;;6.00;99.90;;;;;;6182525;23;20020;-79
2022/01/26 20:08:34;;;;;;;51.00;21.48;;;6.00;99.90;;;;;;6157859;23;20013;-79
2022/01/26 20:11:06;;;;;;;47.72;21.27;;;6.00;99.90;;;;;;6182028;23;20120;-79
2022/01/26 20:13:37;;;;;;;52.83;21.55;;;6.00;99.90;;;;;;6157689;23;20349;-79
2022/01/26 20:16:04;;;;;;;48.72;20.35;;;6.30;99.90;;;;;;6157785;23;20055;-79
2022/01/26 20:18:29;;;;;;;40.13;17.60;;;6.10;99.90;;;;;;6157278;23;20013;-79
2022/01/26 20:20:59;;;;;;;45.20;20.73;;;6.40;99.90;;;;;;6157904;23;20384;-79
2022/01/26 20:23:32;;;;;;;49.45;19.70;;;6.10;99.90;;;;;;6182639;23;20079;-79
2022/01/26 20:26:00;;;;;;;52.28;21.88;;;6.10;99.90;;;;;;6182059;23;20017;-80
2022/01/26 20:28:28;;;;;;;47.58;21.20;;;6.10;99.90;;;;;;6182580;23;20013;-80
2022/01/26 20:30:53;;;;;;;52.80;21.55;;;6.10;99.90;;;;;;6158268;23;20375;-80
2022/01/26 20:33:20;;;;;;;51.35;20.80;;;6.30;99.90;;;;;;6181940;23;20016;-80
2022/01/26 20:35:46;;;;;;;41.95;19.45;;;6.20;99.90;;;;;;6157495;23;20040;-80
2022/01/26 20:38:12;;;;;;;52.83;21.23;;;6.10;99.90;;;;;;6184551;23;20294;-80
2022/01/26 20:40:39;;;;;;;48.55;20.95;;;6.10;99.90;;;;;;6183820;23;20009;-79
2022/01/26 20:43:04;;;;;;;52.80;22.05;;;6.10;99.90;;;;;;6182306;23;20025;-79
2022/01/26 20:45:30;;;;;;;50.80;20.50;;;6.10;99.90;;;;;;6184023;23;20023;-80
2022/01/26 20:48:00;;;;;;;50.50;19.48;;;6.10;99.90;;;;;;6157326;23;20013;-80
2022/01/26 20:50:26;;;;;;;49.15;21.73;;;6.10;99.90;;;;;;6181809;23;20020;-80
2022/01/26 20:52:53;;;;;;;47.72;20.73;;;6.20;99.90;;;;;;6157599;23;20091;-80
2022/01/26 20:55:19;;;;;;;49.70;20.70;;;6.20;99.90;;;;;;6156770;23;20009;-80
2022/01/26 20:57:46;;;;;;;45.92;19.17;;;6.20;99.90;;;;;;6182718;23;20388;-80
2022/01/26 21:00:15;;;;;;;40.65;18.58;;;6.20;99.90;;;;;;6157213;23;20009;-80
2022/01/26 21:02:40;;;;;;;51.67;20.70;;;6.20;99.90;;;;;;6157609;23;20093;-80
2022/01/26 21:05:08;;;;;;;54.55;22.48;;;6.40;99.90;;;;;;6156562;23;20048;-80
2022/01/26 21:07:35;;;;;;;52.85;21.83;;;6.20;99.90;;;;;;6157261;23;20047;-80
2022/01/26 21:10:01;;;;;;;43.75;22.23;;;6.20;99.90;;;;;;6156830;23;20040;-80
2022/01/26 21:12:27;;;;;;;50.15;21.73;;;6.20;99.90;;;;;;6184134;23;20299;-79
2022/01/26 21:14:54;;;;;;;42.45;18.90;;;6.20;99.90;;;;;;6156953;23;20088;-80
2022/01/26 21:17:20;;;;;;;42.00;18.50;;;6.20;99.90;;;;;;6157719;23;20444;-80
2022/01/26 21:19:46;;;;;;;50.35;21.00;;;6.20;99.90;;;;;;6156639;23;20484;-80
2022/01/26 21:22:12;;;;;;;44.10;19.50;;;6.20;99.90;;;;;;6182194;23;20009;-80
2022/01/26 21:24:38;;;;;;;48.28;20.13;;;6.20;99.90;;;;;;6181409;23;20009;-80
2022/01/26 21:27:04;;;;;;;44.47;21.08;;;6.10;99.90;;;;;;6181987;23;20406;-80
2022/01/26 21:29:29;;;;;;;45.67;20.02;;;6.10;99.90;;;;;;6181832;23;20040;-80
2022/01/26 21:31:55;;;;;;;48.50;21.33;;;6.20;99.90;;;;;;6181974;23;20100;-80
2022/01/26 21:34:21;;;;;;;50.67;21.20;;;6.10;99.90;;;;;;6156449;23;20455;-80
2022/01/26 21:36:47;;;;;;;53.90;20.70;;;6.10;99.90;;;;;;6181972;23;20013;-80
2022/01/26 21:39:12;;;;;;;51.15;21.38;;;6.00;99.90;;;;;;6181467;23;20033;-80
2022/01/26 21:41:39;;;;;;;56.90;21.90;;;6.10;99.90;;;;;;6183213;23;20017;-80
2022/01/26 21:44:08;;;;;;;50.05;22.33;;;6.10;99.90;;;;;;6156686;23;20031;-80
2022/01/26 21:46:34;;;;;;;50.92;22.38;;;6.10;99.90;;;;;;6181652;23;20020;-80
2022/01/26 21:49:02;;;;;;;53.08;22.05;;;6.10;99.90;;;;;;6181326;23;20369;-80
2022/01/26 21:51:28;;;;;;;53.65;22.52;;;6.00;99.90;;;;;;6181562;23;20017;-80
2022/01/26 21:53:54;;;;;;;52.85;22.42;;;6.20;99.90;;;;;;6156773;23;20013;-79
2022/01/26 21:56:20;;;;;;;66.45;23.75;;;6.00;99.90;;;;;;6156506;23;20009;-79
2022/01/26 21:58:46;;;;;;;42.95;19.52;;;6.00;99.90;;;;;;6181411;23;20101;-79
2022/01/26 22:01:12;;;;;;;45.83;21.25;;;6.10;99.90;;;;;;6156747;23;20016;-79
2022/01/26 22:03:38;;;;;;;49.90;20.60;;;6.00;99.90;;;;;;6156349;23;20013;-79
2022/01/26 22:06:04;;;;;;;44.28;20.52;;;6.10;99.90;;;;;;6181388;23;20096;-79
2022/01/26 22:08:29;;;;;;;40.38;20.02;;;6.10;99.90;;;;;;6181901;23;20016;-79
2022/01/26 22:10:55;;;;;;;45.85;20.05;;;6.20;99.90;;;;;;6180703;23;20013;-79
2022/01/26 22:13:21;;;;;;;44.83;20.23;;;6.10;99.90;;;;;;6181340;23;20110;-79
2022/01/26 22:15:46;;;;;;;44.78;20.70;;;6.10;99.90;;;;;;6181375;23;20080;-79
2022/01/26 22:18:12;;;;;;;42.20;18.60;;;6.10;99.90;;;;;;6180819;23;20017;-80
2022/01/26 22:20:38;;;;;;;51.25;21.35;;;6.00;99.90;;;;;;6181632;23;20084;-79
2022/01/26 22:23:06;;;;;;;47.55;18.58;;;6.00;99.90;;;;;;6181587;23;20017;-80
2022/01/26 22:25:32;;;;;;;50.67;20.85;;;6.00;99.90;;;;;;6180625;23;20017;-78
2022/01/26 22:28:01;;;;;;;44.95;20.95;;;6.00;99.90;;;;;;6156348;23;20100;-79
2022/01/26 22:30:29;;;;;;;49.60;20.98;;;6.00;99.90;;;;;;6182283;23;20332;-78
2022/01/26 22:32:57;;;;;;;46.38;21.48;;;6.00;99.90;;;;;;6156127;23;20024;-79
2022/01/26 22:35:23;;;;;;;51.50;21.42;;;6.00;99.90;;;;;;6182202;23;20021;-79
2022/01/26 22:37:54;;;;;;;57.20;20.83;;;6.00;99.90;;;;;;6180997;23;20017;-79
2022/01/26 22:40:23;;;;;;;45.28;19.65;;;6.00;99.90;;;;;;6180271;23;20369;-79
2022/01/26 22:42:53;;;;;;;46.03;19.05;;;6.00;99.90;;;;;;6180656;23;20012;-79
2022/01/26 22:45:19;;;;;;;37.47;17.83;;;6.00;99.90;;;;;;6154713;23;20013;-79
2022/01/26 22:47:46;;;;;;;41.33;17.55;;;6.10;99.90;;;;;;6155915;23;20013;-79
2022/01/26 22:50:13;;;;;;;40.38;18.83;;;6.00;99.90;;;;;;6180174;23;20028;-79
2022/01/26 22:52:39;;;;;;;37.60;17.20;;;6.00;99.90;;;;;;6156215;23;20065;-80
2022/01/26 22:55:05;;;;;;;45.05;18.77;;;6.00;99.90;;;;;;6180587;23;20021;-80
2022/01/26 22:57:30;;;;;;;40.70;18.33;;;6.00;99.90;;;;;;6157986;23;20013;-80
2022/01/26 22:59:56;;;;;;;39.47;16.40;;;6.00;99.90;;;;;;6182485;23;20393;-79
2022/01/26 23:02:46;;;;;;;36.05;16.25;;;6.00;99.90;;;;;;6132724;23;20020;-79
2022/01/26 23:07:50;;;;;;;40.42;16.17;;;5.90;99.90;;;;;;6182884;23;20055;-79
2022/01/26 23:10:16;;;;;;;36.55;16.33;;;6.30;99.90;;;;;;6181918;23;20013;-80
2022/01/26 23:12:42;;;;;;;30.67;14.43;;;5.90;99.90;;;;;;6182933;23;20041;-80
2022/01/26 23:15:08;;;;;;;32.67;15.82;;;6.00;99.90;;;;;;6182478;23;20010;-80
2022/01/26 23:17:34;;;;;;;36.90;15.98;;;6.00;99.90;;;;;;6157913;23;20469;-80
2022/01/26 23:20:00;;;;;;;32.08;14.20;;;6.00;99.90;;;;;;6182145;23;20041;-80
2022/01/26 23:22:28;;;;;;;31.60;14.45;;;6.00;99.90;;;;;;6157888;23;20009;-80
2022/01/26 23:25:06;;;;;;;37.15;15.40;;;6.00;99.90;;;;;;6184076;23;20043;-80
2022/01/26 23:28:25;;;;;;;33.70;15.50;;;6.00;99.90;;;;;;6157816;23;20055;-80
2022/01/26 23:36:00;;;;;;;40.42;15.85;;;6.00;99.90;;;;;;6182074;23;20021;-80
